LSGP weather

La Côte Airport
La Côte, Canton of Vaud, Switzerland

Public forecast

Using degrees Celsius for public forecast. Weather courtesy of forecast.io.

Closest aviation weather report (METAR) to La Côte Airport

Closest report is Geneva Cointrin International Airport, 11.8 nm (21.9 km) SSW. Retrieved 2020/01/21 01:20 UTC (33 minutes ago):

LSGG 210120Z AUTO VRB03KT 9999 SCT021 M01/M04 Q1039 NOSIG

Closest aviation forecast (TAF) to La Côte Airport

Closest forecast is Geneva Cointrin International Airport, 11.8 nm (21.9 km) SSW. Retrieved 2020-01-21 03:37 UTC (0 seconds ago):

TAF LSGG 210225Z 2103/2209 VRB03KT 9999 SCT020 TX03/2115Z TNM01/2106Z TNM02/2206Z PROB40 2103/2109 BKN020 BECMG 2110/2113 07008KT CAVOK BECMG 2116/2118 VRB03KT PROB40 2202/2209 BKN015